Time;durP1;ratioP1;P1;durP2;ratioP2;P2;SDS_P1;SDS_P2;PMS_P1;PMS_P2;Temp;Humidity;BMP_temperature;BMP_pressure;BME280_temperature;BME280_humidity;BME280_pressure;Samples;Min_cycle;Max_cycle;Signal;HPM_P1;HPM_P2
2022/09/09 00:02:02;;;;;;;1.83;1.40;;;;;;;12.86;46.64;100048.09;5016775;28;20083;-78
2022/09/09 00:04:32;;;;;;;4.15;1.50;;;;;;;12.84;46.58;100058.06;5032950;28;20037;-78
2022/09/09 00:07:05;;;;;;;2.60;1.50;;;;;;;12.86;46.59;100052.56;5049604;28;20053;-78
2022/09/09 00:09:38;;;;;;;1.95;1.25;;;;;;;12.85;46.60;100050.91;5032776;28;20045;-80
2022/09/09 00:12:18;;;;;;;1.75;1.17;;;;;;;12.89;46.62;100053.09;5016515;28;20047;-79
2022/09/09 00:14:55;;;;;;;2.85;1.40;;;;;;;12.95;46.56;100048.91;5032814;28;20044;-79
2022/09/09 00:17:33;;;;;;;4.20;1.30;;;;;;;12.94;46.52;100055.25;5016164;28;20087;-79
2022/09/09 00:20:09;;;;;;;2.97;1.40;;;;;;;12.94;46.54;100060.59;5032734;28;20045;-79
2022/09/09 00:22:36;;;;;;;2.97;1.35;;;;;;;12.82;46.78;100057.38;5032883;28;20045;-79
2022/09/09 00:25:11;;;;;;;2.35;1.20;;;;;;;12.94;46.38;100061.44;5049421;28;20037;-80
2022/09/09 00:27:48;;;;;;;2.10;1.33;;;;;;;12.89;46.42;100045.09;5065878;28;20045;-80
2022/09/09 00:30:26;;;;;;;2.33;1.40;;;;;;;12.93;46.54;100057.09;5016249;28;20037;-81
2022/09/09 00:33:00;;;;;;;2.63;1.10;;;;;;;12.98;46.43;100064.59;5016080;28;20044;-78
2022/09/09 00:35:32;;;;;;;3.47;1.20;;;;;;;12.95;46.41;100065.75;5016387;28;20040;-80
2022/09/09 00:38:04;;;;;;;1.35;0.93;;;;;;;12.85;46.62;100057.09;5049536;28;20048;-80
2022/09/09 00:40:35;;;;;;;3.92;1.17;;;;;;;12.91;46.59;100068.91;5033146;28;20040;-81
2022/09/09 00:43:27;;;;;;;4.60;1.40;;;;;;;12.96;46.57;100071.94;5034802;28;20045;-80
2022/09/09 00:46:19;;;;;;;3.95;1.30;;;;;;;12.91;46.58;100066.25;5066051;28;20076;-79
2022/09/09 00:48:53;;;;;;;3.47;1.50;;;;;;;12.87;46.77;100063.06;5033381;28;20045;-78
2022/09/09 00:51:30;;;;;;;2.00;1.30;;;;;;;12.89;46.56;100068.25;5019547;28;20476;-79
2022/09/09 00:54:10;;;;;;;3.72;1.70;;;;;;;12.74;46.73;100064.53;5069643;28;20049;-79
2022/09/09 00:57:07;;;;;;;2.40;1.10;;;;;;;12.95;46.37;100076.44;5035974;28;20479;-77
2022/09/09 00:59:48;;;;;;;3.05;1.33;;;;;;;12.91;46.72;100066.25;5035349;28;20053;-80
2022/09/09 01:02:40;;;;;;;5.05;1.30;;;;;;;12.96;46.57;100085.28;5035783;28;20128;-78
2022/09/09 01:05:13;;;;;;;1.30;0.93;;;;;;;12.93;46.67;100081.06;5050110;28;20056;-80
2022/09/09 01:07:41;;;;;;;4.82;1.48;;;;;;;12.85;46.76;100083.75;5033394;28;20471;-80
2022/09/09 01:10:29;;;;;;;1.90;1.30;;;;;;;13.04;46.29;100080.81;5033154;28;20131;-78
2022/09/09 01:12:56;;;;;;;1.70;1.25;;;;;;;12.98;46.60;100081.44;5049585;28;20079;-79
2022/09/09 01:15:26;;;;;;;3.00;1.17;;;;;;;12.99;46.46;100080.44;5049912;28;20056;-80
2022/09/09 01:18:01;;;;;;;2.10;1.20;;;;;;;12.79;46.37;100072.88;5033408;28;20049;-79
2022/09/09 01:20:57;;;;;;;6.88;1.52;;;;;;;13.17;46.12;100091.00;5033488;28;20033;-77
2022/09/09 01:23:44;;;;;;;7.05;1.40;;;;;;;13.23;45.90;100095.69;5051831;28;20138;-79
2022/09/09 01:26:30;;;;;;;3.13;1.08;;;;;;;13.12;46.12;100107.50;5051694;28;20041;-79
2022/09/09 01:29:00;;;;;;;3.35;1.13;;;;;;;12.92;46.44;100094.56;5051906;28;20060;-79
2022/09/09 01:31:37;;;;;;;3.30;1.48;;;;;;;12.96;45.97;100075.41;5036026;28;20538;-78
2022/09/09 01:34:12;;;;;;;1.63;1.10;;;;;;;13.06;46.04;100101.97;5052076;28;20044;-80
2022/09/09 01:36:50;;;;;;;1.52;1.20;;;;;;;12.98;46.21;100101.91;5050985;28;20127;-79
2022/09/09 01:39:17;;;;;;;4.00;1.30;;;;;;;12.71;46.50;100111.00;5018352;28;20052;-79
2022/09/09 01:41:44;;;;;;;3.55;1.27;;;;;;;12.63;46.78;100110.13;5035522;28;20537;-80
2022/09/09 01:44:12;;;;;;;1.77;1.35;;;;;;;12.55;46.89;100102.94;5019147;28;20064;-78
2022/09/09 01:46:41;;;;;;;2.10;1.17;;;;;;;12.50;47.07;100109.75;5003546;28;20045;-80
2022/09/09 01:49:14;;;;;;;7.53;1.52;;;;;;;12.43;47.28;100109.53;5019628;28;20524;-80
2022/09/09 01:51:40;;;;;;;2.60;1.40;;;;;;;12.51;47.39;100112.25;5037580;28;20041;-78
2022/09/09 01:54:10;;;;;;;2.67;1.38;;;;;;;12.42;47.50;100118.53;5037344;28;20084;-80
2022/09/09 01:56:41;;;;;;;2.67;1.55;;;;;;;12.23;47.85;100112.56;5018838;28;20114;-79
2022/09/09 01:59:28;;;;;;;6.10;1.65;;;;;;;12.48;47.73;100114.38;5051255;28;20495;-77
2022/09/09 02:02:17;;;;;;;2.80;1.55;;;;;;;12.50;47.85;100113.22;5066811;28;20094;-79
2022/09/09 02:05:34;;;;;;;3.47;1.40;;;;;;;12.55;47.72;100124.25;5047520;28;20098;-79
2022/09/09 02:08:16;;;;;;;2.53;1.35;;;;;;;12.55;47.82;100113.59;5054245;28;20051;-81
2022/09/09 02:11:05;;;;;;;1.58;1.30;;;;;;;12.61;47.74;100120.13;5039281;28;20108;-79
2022/09/09 02:13:39;;;;;;;1.75;1.52;;;;;;;12.47;47.74;100126.03;5023477;28;20068;-80
2022/09/09 02:16:12;;;;;;;5.68;1.42;;;;;;;12.60;47.77;100115.78;5022724;28;20032;-81
2022/09/09 02:18:42;;;;;;;2.20;1.30;;;;;;;12.69;47.76;100125.47;5055318;28;20571;-79
2022/09/09 02:21:11;;;;;;;4.47;1.40;;;;;;;12.62;47.55;100127.97;5038254;28;20530;-79
2022/09/09 02:23:46;;;;;;;5.32;1.50;;;;;;;12.70;47.49;100132.50;5022713;28;20044;-80
2022/09/09 02:26:19;;;;;;;1.83;1.40;;;;;;;12.76;47.31;100137.19;5059151;28;20129;-79
2022/09/09 02:28:50;;;;;;;3.20;1.42;;;;;;;12.72;47.50;100126.00;5048096;28;20032;-79
2022/09/09 02:31:19;;;;;;;3.78;1.42;;;;;;;12.78;47.43;100133.34;5045165;28;20052;-78
2022/09/09 02:33:52;;;;;;;2.97;1.60;;;;;;;12.84;47.54;100139.88;5037919;28;20048;-79
2022/09/09 02:36:21;;;;;;;2.13;1.58;;;;;;;12.63;47.46;100142.94;5070911;28;20080;-80
2022/09/09 02:38:52;;;;;;;4.15;1.25;;;;;;;12.57;47.67;100150.72;5070640;28;20048;-79
2022/09/09 02:41:33;;;;;;;3.25;1.50;;;;;;;12.57;47.59;100127.59;5022583;28;20083;-81
2022/09/09 02:43:59;;;;;;;6.25;1.70;;;;;;;12.33;47.89;100145.25;5054076;28;20051;-81
2022/09/09 02:46:50;;;;;;;2.33;1.60;;;;;;;12.56;47.89;100157.06;5054238;28;20618;-80
2022/09/09 02:49:35;;;;;;;1.63;1.50;;;;;;;12.12;48.19;100147.41;5070788;28;20497;-81
2022/09/09 02:52:08;;;;;;;2.95;1.50;;;;;;;12.17;48.65;100150.47;5038572;28;20041;-80
2022/09/09 02:54:38;;;;;;;2.63;1.50;;;;;;;12.14;48.93;100158.75;5038001;28;20055;-80
2022/09/09 02:57:15;;;;;;;2.00;1.60;;;;;;;12.19;48.68;100156.47;5054132;28;20378;-80
2022/09/09 02:59:45;;;;;;;2.22;1.60;;;;;;;12.11;48.69;100164.41;5038188;28;20158;-81
2022/09/09 03:02:12;;;;;;;2.75;1.70;;;;;;;12.01;48.68;100161.81;5069872;28;20518;-81
2022/09/09 03:04:40;;;;;;;4.95;1.90;;;;;;;12.06;48.64;100166.69;5069640;28;20134;-81
2022/09/09 03:07:07;;;;;;;5.28;2.30;;;;;;;11.93;48.81;100156.47;5053469;28;20059;-75
2022/09/09 03:09:33;;;;;;;3.10;2.10;;;;;;;11.93;48.79;100163.59;5020342;28;20048;-80
2022/09/09 03:11:59;;;;;;;3.67;2.22;;;;;;;11.93;49.06;100165.25;5019524;28;20090;-77
2022/09/09 03:14:26;;;;;;;6.47;2.05;;;;;;;11.85;48.92;100161.72;5036913;28;20048;-80
2022/09/09 03:16:53;;;;;;;3.05;1.98;;;;;;;11.90;48.97;100162.91;5036681;28;20036;-78
2022/09/09 03:19:20;;;;;;;6.03;1.98;;;;;;;12.00;48.92;100167.31;5037066;28;20051;-80
2022/09/09 03:21:47;;;;;;;3.67;1.90;;;;;;;11.95;48.99;100169.63;5036184;28;20135;-79
2022/09/09 03:24:13;;;;;;;5.30;2.03;;;;;;;11.96;48.95;100166.81;5019567;28;20044;-78
2022/09/09 03:26:40;;;;;;;6.72;2.03;;;;;;;11.99;49.06;100170.97;5036268;28;20056;-79
2022/09/09 03:29:12;;;;;;;3.08;1.90;;;;;;;11.99;48.92;100177.13;5037268;28;20056;-80
2022/09/09 03:31:39;;;;;;;5.00;2.03;;;;;;;12.08;48.86;100173.53;5069423;28;20040;-77
2022/09/09 03:34:05;;;;;;;3.90;2.17;;;;;;;12.10;48.75;100182.19;5053976;28;20037;-79
2022/09/09 03:36:33;;;;;;;10.68;3.90;;;;;;;12.18;48.28;100176.13;5037721;28;20053;-80
2022/09/09 03:39:00;;;;;;;7.68;2.78;;;;;;;12.18;48.52;100178.78;5054926;28;20052;-78
2022/09/09 03:41:29;;;;;;;7.82;2.22;;;;;;;12.28;48.11;100185.69;5037372;28;20892;-78
2022/09/09 03:43:55;;;;;;;5.28;2.25;;;;;;;12.28;47.75;100191.00;5018869;28;20048;-78
2022/09/09 03:46:25;;;;;;;5.28;2.22;;;;;;;12.34;47.85;100194.88;5036042;28;20044;-75
2022/09/09 03:48:52;;;;;;;5.15;2.17;;;;;;;12.21;48.08;100195.28;5069345;28;20048;-76
2022/09/09 03:51:19;;;;;;;2.67;1.83;;;;;;;12.23;48.15;100184.47;5036022;28;20052;-75
2022/09/09 03:53:46;;;;;;;4.97;1.95;;;;;;;12.23;48.21;100201.28;5019605;28;20139;-75
2022/09/09 03:56:12;;;;;;;8.05;1.90;;;;;;;12.23;48.03;100195.97;5035864;28;20526;-74
2022/09/09 03:58:39;;;;;;;9.25;2.10;;;;;;;12.28;48.14;100190.16;5019660;28;20135;-74
2022/09/09 04:01:14;;;;;;;6.57;2.40;;;;;;;12.48;48.12;100211.13;5020343;28;20048;-73
2022/09/09 04:03:42;;;;;;;3.75;2.10;;;;;;;12.32;48.11;100210.16;5069168;28;20045;-73
2022/09/09 04:06:10;;;;;;;2.42;1.95;;;;;;;12.36;47.93;100191.03;5052915;28;20091;-76
2022/09/09 04:08:38;;;;;;;3.10;1.98;;;;;;;12.36;47.87;100201.69;5052748;28;20055;-73
2022/09/09 04:11:06;;;;;;;3.03;1.85;;;;;;;12.44;47.98;100215.09;5035898;28;20040;-75
2022/09/09 04:13:40;;;;;;;2.50;2.00;;;;;;;12.61;47.67;100200.88;5068872;28;20204;-77
2022/09/09 04:16:10;;;;;;;3.97;2.10;;;;;;;12.65;47.61;100210.25;5052913;28;20048;-78
2022/09/09 04:18:40;;;;;;;6.50;2.08;;;;;;;12.78;47.54;100220.47;5036196;28;20532;-76
2022/09/09 04:21:07;;;;;;;3.92;2.17;;;;;;;12.69;47.54;100211.59;5051978;28;20045;-76
2022/09/09 04:23:34;;;;;;;9.35;1.90;;;;;;;12.66;47.46;100225.25;5052504;28;20437;-74
2022/09/09 04:26:01;;;;;;;2.70;2.00;;;;;;;12.80;47.60;100219.34;5038628;28;20040;-78
2022/09/09 04:28:29;;;;;;;3.28;1.90;;;;;;;12.79;47.24;100200.84;5056089;28;20048;-75
2022/09/09 04:30:56;;;;;;;5.57;2.33;;;;;;;12.85;47.52;100222.38;5039251;28;20040;-75
2022/09/09 04:33:27;;;;;;;3.35;1.95;;;;;;;12.92;47.21;100223.38;5055936;28;20037;-79
2022/09/09 04:35:54;;;;;;;2.33;1.92;;;;;;;12.92;47.15;100222.53;5039833;28;20167;-76
2022/09/09 04:38:22;;;;;;;5.05;2.20;;;;;;;12.95;47.02;100228.41;5035684;28;20037;-80
2022/09/09 04:40:51;;;;;;;5.20;2.03;;;;;;;13.12;46.95;100234.69;5021135;28;20109;-79
2022/09/09 04:43:18;;;;;;;2.33;1.80;;;;;;;13.07;46.69;100234.31;5038610;28;20036;-78
2022/09/09 04:45:51;;;;;;;8.25;2.30;;;;;;;13.34;46.41;100228.78;5021467;28;20143;-77
2022/09/09 04:48:18;;;;;;;4.95;1.98;;;;;;;13.24;46.63;100228.91;5077492;28;20052;-78
2022/09/09 04:50:56;;;;;;;5.93;2.58;;;;;;;13.47;46.28;100240.66;5037448;28;20051;-78
2022/09/09 04:53:23;;;;;;;4.32;1.85;;;;;;;13.36;46.22;100240.13;5054513;28;20048;-77
2022/09/09 04:55:49;;;;;;;6.15;2.08;;;;;;;13.38;46.78;100248.78;5020873;28;20048;-79
2022/09/09 04:58:15;;;;;;;3.28;2.33;;;;;;;13.49;45.95;100246.69;5037678;28;20408;-80
2022/09/09 05:00:42;;;;;;;4.10;1.80;;;;;;;13.59;45.86;100236.69;5021147;28;20044;-79
2022/09/09 05:03:08;;;;;;;3.58;2.03;;;;;;;13.57;45.54;100257.41;5037119;28;20040;-78
2022/09/09 05:05:35;;;;;;;6.72;2.40;;;;;;;13.71;45.91;100257.75;5019455;28;20412;-80
2022/09/09 05:08:06;;;;;;;7.43;2.00;;;;;;;14.00;45.27;100258.16;5019410;28;20044;-81
2022/09/09 05:10:33;;;;;;;8.02;2.10;;;;;;;13.93;45.16;100255.28;5052806;28;20103;-82
2022/09/09 05:12:59;;;;;;;8.40;1.92;;;;;;;13.90;45.23;100260.16;5053345;28;20412;-77
2022/09/09 05:15:28;;;;;;;9.10;2.63;;;;;;;14.04;45.18;100264.84;5021799;28;20044;-73
2022/09/09 05:17:59;;;;;;;4.68;2.10;;;;;;;14.27;45.17;100260.56;5070297;28;20388;-73
2022/09/09 05:20:25;;;;;;;4.80;2.15;;;;;;;14.11;44.88;100265.84;5037413;28;20044;-75
2022/09/09 05:22:54;;;;;;;6.68;2.17;;;;;;;14.37;44.70;100270.09;5020848;28;20575;-75
2022/09/09 05:25:22;;;;;;;;;;;;;;;14.58;43.67;100275.75;5038129;28;20053;-75
2022/09/09 05:27:49;;;;;;;3.35;1.60;;;;;;;14.17;43.91;100262.50;5054884;28;19916;-75
2022/09/09 05:30:15;;;;;;;4.15;1.75;;;;;;;14.38;43.42;100276.25;5009820;28;20041;-75
2022/09/09 05:32:41;;;;;;;4.20;1.92;;;;;;;14.39;43.40;100277.94;5041056;28;20048;-74
2022/09/09 05:35:08;;;;;;;7.07;1.70;;;;;;;14.39;43.27;100277.94;5021604;28;20068;-75
2022/09/09 05:37:34;;;;;;;4.05;1.65;;;;;;;14.47;42.95;100283.25;5037338;28;20044;-75
2022/09/09 05:40:01;;;;;;;3.88;1.98;;;;;;;14.49;43.00;100281.25;5050004;28;20076;-75
2022/09/09 05:42:32;;;;;;;4.28;1.70;;;;;;;14.78;42.66;100277.06;5034092;28;20041;-75
2022/09/09 05:44:58;;;;;;;4.22;1.77;;;;;;;14.64;42.40;100276.91;5050534;28;20400;-74
2022/09/09 05:47:27;;;;;;;3.70;1.90;;;;;;;14.82;42.16;100281.06;5016690;28;20404;-74
2022/09/09 05:49:55;;;;;;;2.88;1.60;;;;;;;15.05;41.01;100275.84;5033800;28;20053;-75
2022/09/09 05:52:22;;;;;;;4.93;1.38;;;;;;;15.01;40.38;100279.84;5033574;28;20048;-76
2022/09/09 05:54:49;;;;;;;4.80;1.20;;;;;;;15.09;40.19;100286.03;5018792;28;20527;-76
2022/09/09 05:57:15;;;;;;;3.85;1.50;;;;;;;15.31;39.94;100294.31;5035042;28;20041;-76
2022/09/09 05:59:41;;;;;;;9.80;1.38;;;;;;;15.47;39.21;100292.44;5070298;28;20040;-74
2022/09/09 06:02:08;;;;;;;1.67;1.15;;;;;;;15.67;38.65;100296.38;5036910;28;20135;-76
2022/09/09 06:04:37;;;;;;;1.50;1.40;;;;;;;15.60;38.54;100294.59;5037413;28;20044;-75
2022/09/09 06:07:04;;;;;;;3.45;1.25;;;;;;;15.89;38.34;100302.81;5036290;28;20061;-75
2022/09/09 06:09:30;;;;;;;2.92;1.40;;;;;;;15.86;37.77;100301.31;5020155;28;20514;-76
2022/09/09 06:11:57;;;;;;;6.10;1.40;;;;;;;15.96;37.75;100307.28;5035163;28;20116;-77
2022/09/09 06:14:25;;;;;;;2.00;1.30;;;;;;;16.04;37.64;100309.06;5069672;28;20142;-77
2022/09/09 06:16:51;;;;;;;4.65;1.20;;;;;;;16.10;37.11;100303.84;5036622;28;20051;-77
2022/09/09 06:19:20;;;;;;;4.78;1.50;;;;;;;16.15;36.50;100314.88;5069628;28;20071;-73
2022/09/09 06:21:47;;;;;;;3.03;1.30;;;;;;;16.22;36.26;100301.63;5035527;28;20079;-75
2022/09/09 06:24:17;;;;;;;2.42;1.30;;;;;;;16.46;35.67;100314.88;5037917;28;20098;-72
2022/09/09 06:26:43;;;;;;;4.13;1.10;;;;;;;16.62;35.18;100314.75;5053104;28;20089;-73
2022/09/09 06:29:16;;;;;;;2.40;1.33;;;;;;;16.72;34.98;100301.91;5038188;28;20064;-73
2022/09/09 06:31:44;;;;;;;3.83;1.20;;;;;;;16.98;34.63;100320.28;5019474;28;20040;-73
2022/09/09 06:34:17;;;;;;;7.07;1.58;;;;;;;17.14;33.94;100310.22;5021143;28;20052;-72
2022/09/09 06:36:52;;;;;;;4.50;1.50;;;;;;;17.30;33.26;100317.28;5037263;28;20044;-73
2022/09/09 06:39:17;;;;;;;5.05;2.20;;;;;;;17.44;33.04;100316.47;5035734;28;20044;-74
2022/09/09 06:41:44;;;;;;;3.33;1.60;;;;;;;17.49;32.89;100319.44;5036123;28;20051;-74
2022/09/09 06:44:31;;;;;;;6.03;1.30;;;;;;;17.46;32.60;100319.81;5030729;28;20428;-73
2022/09/09 06:46:57;;;;;;;5.43;1.17;;;;;;;17.44;32.21;100311.94;5035121;28;20051;-72
2022/09/09 06:49:23;;;;;;;3.03;0.90;;;;;;;17.60;31.50;100329.72;5014196;28;20037;-71
2022/09/09 06:51:49;;;;;;;3.67;1.08;;;;;;;17.76;31.21;100330.34;5000377;28;20045;-73
2022/09/09 06:54:16;;;;;;;6.18;1.00;;;;;;;17.67;31.06;100309.97;5015680;28;20060;-73
2022/09/09 06:56:45;;;;;;;3.67;1.15;;;;;;;17.88;30.94;100331.53;5015478;28;20097;-74
2022/09/09 06:59:18;;;;;;;3.15;1.27;;;;;;;17.95;30.45;100342.34;5018076;28;20067;-73
2022/09/09 07:01:45;;;;;;;4.05;1.10;;;;;;;18.07;30.26;100338.16;5029987;28;20037;-75
2022/09/09 07:04:13;;;;;;;2.75;0.80;;;;;;;18.30;29.59;100334.31;5021219;28;20068;-73
2022/09/09 07:06:43;;;;;;;4.55;1.55;;;;;;;18.60;29.12;100340.44;5033454;28;20045;-73
2022/09/09 07:09:13;;;;;;;4.22;1.10;;;;;;;18.89;28.75;100340.28;5018504;28;20093;-73
2022/09/09 07:11:52;;;;;;;2.57;0.93;;;;;;;19.16;27.94;100330.56;5067846;28;20110;-73
2022/09/09 07:14:20;;;;;;;0.85;0.80;;;;;;;19.13;27.84;100331.78;5045316;28;20290;-72
2022/09/09 07:16:51;;;;;;;2.65;0.80;;;;;;;19.23;27.02;100340.34;5047316;28;20051;-73
2022/09/09 07:19:18;;;;;;;3.72;1.10;;;;;;;19.34;27.34;100345.19;5030718;28;20106;-75
2022/09/09 07:21:46;;;;;;;1.63;1.00;;;;;;;19.44;27.23;100355.63;5051679;28;20162;-73
2022/09/09 07:24:15;;;;;;;3.60;0.93;;;;;;;19.59;26.55;100350.94;5019247;28;20071;-73
2022/09/09 07:26:42;;;;;;;1.17;0.82;;;;;;;19.81;26.26;100350.69;5069379;28;20048;-72
2022/09/09 07:29:08;;;;;;;3.03;1.13;;;;;;;19.83;26.19;100347.78;5019268;28;20698;-70
2022/09/09 07:31:37;;;;;;;3.75;1.08;;;;;;;19.85;26.42;100351.13;5051796;28;20049;-70
2022/09/09 07:34:06;;;;;;;2.17;1.13;;;;;;;19.66;26.48;100349.16;5051930;28;20047;-71
2022/09/09 07:36:36;;;;;;;1.65;0.88;;;;;;;20.10;25.97;100360.34;5034885;28;20470;-72
2022/09/09 07:39:05;;;;;;;1.83;0.85;;;;;;;20.37;25.38;100361.28;5035011;28;20076;-71
2022/09/09 07:41:37;;;;;;;2.80;1.10;;;;;;;22.99;22.55;100361.31;5019071;28;20067;-73
2022/09/09 07:44:14;;;;;;;4.03;1.00;;;;;;;26.25;18.72;100358.53;5051643;28;20045;-74
2022/09/09 07:46:44;;;;;;;0.90;0.70;;;;;;;29.82;15.50;100366.81;5051764;28;20468;-71
2022/09/09 07:49:11;;;;;;;2.45;0.70;;;;;;;31.16;13.93;100376.56;5052215;28;20062;-71
2022/09/09 07:51:45;;;;;;;2.50;0.73;;;;;;;30.93;13.70;100364.22;5035374;28;20499;-69
2022/09/09 07:54:15;;;;;;;3.13;0.82;;;;;;;29.83;14.96;100365.72;5051462;28;20049;-71
2022/09/09 07:56:43;;;;;;;2.42;0.68;;;;;;;28.25;16.26;100365.66;5018915;28;20117;-69
2022/09/09 07:59:11;;;;;;;2.08;0.82;;;;;;;27.00;17.31;100359.94;5051972;28;20048;-69
2022/09/09 08:01:41;;;;;;;3.40;0.90;;;;;;;26.15;18.14;100363.78;5039520;28;20131;-69
2022/09/09 08:04:12;;;;;;;3.47;0.90;;;;;;;25.34;18.77;100349.44;5055768;28;20055;-70
2022/09/09 08:06:39;;;;;;;4.47;0.90;;;;;;;25.13;19.34;100369.00;5039218;28;20048;-70
2022/09/09 08:09:08;;;;;;;3.65;1.00;;;;;;;25.57;18.87;100363.84;5038341;28;20044;-69
2022/09/09 08:11:35;;;;;;;4.20;1.00;;;;;;;26.19;18.16;100363.06;5054740;28;20048;-70
2022/09/09 08:14:02;;;;;;;2.63;1.05;;;;;;;28.20;16.36;100369.13;5054867;28;20040;-70
2022/09/09 08:16:31;;;;;;;6.38;2.00;;;;;;;30.67;14.24;100368.00;5055367;28;20125;-69
2022/09/09 08:18:58;;;;;;;3.33;1.60;;;;;;;30.74;13.94;100367.69;5071839;28;20067;-71
2022/09/09 08:21:27;;;;;;;3.58;1.30;;;;;;;29.92;14.48;100373.19;5055272;28;20198;-69
2022/09/09 08:23:56;;;;;;;3.60;1.27;;;;;;;28.52;15.49;100377.47;5053833;28;20582;-71
2022/09/09 08:26:34;;;;;;;4.93;1.40;;;;;;;27.31;16.59;100374.94;5050179;28;20047;-69
2022/09/09 08:29:03;;;;;;;6.55;1.50;;;;;;;25.96;17.79;100365.81;5069610;28;20041;-79
2022/09/09 08:31:43;;;;;;;7.13;1.25;;;;;;;25.42;18.14;100371.66;5054772;28;20052;-69
2022/09/09 08:34:12;;;;;;;2.92;0.95;;;;;;;24.80;18.74;100369.53;5055138;28;20576;-70
2022/09/09 08:36:42;;;;;;;2.72;1.20;;;;;;;24.75;18.65;100366.69;5037238;28;20036;-68
2022/09/09 08:39:17;;;;;;;4.15;3.08;;;;;;;27.53;15.53;100384.00;5071133;28;20055;-69
2022/09/09 08:41:50;;;;;;;2.13;1.00;;;;;;;31.03;12.46;100380.66;5053802;28;20044;-75
2022/09/09 08:44:28;;;;;;;1.13;0.90;;;;;;;34.10;10.41;100377.94;5054699;28;20036;-73
2022/09/09 08:47:07;;;;;;;1.65;0.80;;;;;;;37.27;8.56;100394.22;5059176;28;20044;-72
2022/09/09 08:49:51;;;;;;;1.70;0.73;;;;;;;39.29;7.53;100376.91;5054660;28;20105;-74
2022/09/09 08:52:32;;;;;;;2.03;0.80;;;;;;;41.76;6.21;100384.44;5049635;28;20501;-75
2022/09/09 08:55:24;;;;;;;1.48;0.75;;;;;;;41.48;5.85;100382.63;5072323;28;20048;-73
2022/09/09 08:57:51;;;;;;;5.47;1.08;;;;;;;39.25;7.34;100370.34;5037200;28;20052;-73
2022/09/09 09:00:18;;;;;;;2.47;0.80;;;;;;;36.74;8.45;100371.91;5036959;28;20044;-73
2022/09/09 09:02:49;;;;;;;7.20;1.10;;;;;;;34.34;10.08;100372.38;5032860;28;20052;-71
2022/09/09 09:05:27;;;;;;;7.50;0.90;;;;;;;32.39;11.24;100366.69;5036906;28;20128;-72
2022/09/09 09:07:59;;;;;;;2.00;0.90;;;;;;;30.56;12.42;100346.28;5069765;28;20056;-71
2022/09/09 09:10:50;;;;;;;3.55;0.90;;;;;;;29.89;13.37;100361.94;5020667;28;20070;-73
2022/09/09 09:13:49;;;;;;;3.72;0.80;;;;;;;30.65;12.59;100372.06;5049234;28;20529;-73
2022/09/09 09:16:32;;;;;;;1.85;1.25;;;;;;;32.21;11.71;100383.81;5047351;28;20044;-74
2022/09/09 09:19:00;;;;;;;5.28;1.00;;;;;;;35.46;9.52;100385.03;5018446;28;20148;-75
2022/09/09 09:21:34;;;;;;;2.65;0.80;;;;;;;36.93;8.31;100384.50;5019528;28;20044;-76
2022/09/09 09:24:01;;;;;;;2.58;0.90;;;;;;;38.32;7.80;100385.81;5034018;28;20048;-76
2022/09/09 09:26:35;;;;;;;5.25;1.00;;;;;;;38.64;7.27;100388.97;5035075;28;20044;-76
2022/09/09 09:29:12;;;;;;;2.50;0.80;;;;;;;37.34;7.90;100378.78;5035573;28;20091;-75
2022/09/09 09:31:43;;;;;;;4.15;1.73;;;;;;;35.78;9.06;100382.22;5055143;28;20036;-77
2022/09/09 09:34:11;;;;;;;4.47;0.85;;;;;;;36.30;8.64;100366.28;5037432;28;20098;-77
2022/09/09 09:36:46;;;;;;;3.47;1.10;;;;;;;38.42;7.38;100378.00;5052960;28;20044;-78
2022/09/09 09:39:39;;;;;;;2.60;0.70;;;;;;;40.99;5.85;100387.19;5037775;28;20168;-78
2022/09/09 09:42:13;;;;;;;2.85;1.02;;;;;;;42.71;5.30;100370.84;5021049;28;20068;-77
2022/09/09 09:44:41;;;;;;;4.20;1.00;;;;;;;44.32;4.54;100371.66;5037461;28;20044;-79
2022/09/09 09:47:17;;;;;;;0.70;0.70;;;;;;;45.70;3.99;100370.53;5022550;28;20051;-78
2022/09/09 09:49:55;;;;;;;2.72;1.08;;;;;;;46.27;2.99;100372.31;5038663;28;20629;-81
2022/09/09 09:52:24;;;;;;;2.80;0.70;;;;;;;43.80;4.07;100354.31;5036626;28;20041;-73
2022/09/09 09:54:51;;;;;;;6.72;0.90;;;;;;;40.71;5.73;100361.03;5004141;28;20128;-74
2022/09/09 09:57:18;;;;;;;5.05;1.13;;;;;;;37.96;7.00;100354.66;5036682;28;20496;-71
2022/09/09 09:59:46;;;;;;;1.27;0.80;;;;;;;35.63;8.57;100360.41;5036868;28;20125;-72
2022/09/09 10:02:26;;;;;;;4.80;0.95;;;;;;;33.54;9.54;100346.56;5021996;28;20214;-73
2022/09/09 10:05:06;;;;;;;1.63;1.17;;;;;;;33.64;9.43;100356.66;5038279;28;20512;-74
2022/09/09 10:07:34;;;;;;;3.13;1.15;;;;;;;33.43;9.93;100356.03;5036601;28;20085;-74
2022/09/09 10:10:01;;;;;;;4.60;0.93;;;;;;;35.49;8.80;100361.53;5052853;28;20086;-73
2022/09/09 10:12:50;;;;;;;2.63;0.90;;;;;;;38.34;7.27;100359.34;5035447;28;20044;-72
2022/09/09 10:15:30;;;;;;;4.50;0.90;;;;;;;40.29;5.67;100372.47;5052574;28;20048;-72
2022/09/09 10:18:33;;;;;;;3.40;0.68;;;;;;;39.58;5.84;100369.47;5052451;28;20144;-73
2022/09/09 10:21:02;;;;;;;5.88;0.90;;;;;;;37.62;7.23;100366.41;5069355;28;20084;-73
2022/09/09 10:23:43;;;;;;;1.20;0.80;;;;;;;35.56;8.38;100359.16;5037639;28;20036;-74
2022/09/09 10:26:48;;;;;;;5.00;1.40;;;;;;;33.49;9.36;100357.63;5069402;28;20044;-72
2022/09/09 10:29:43;;;;;;;2.05;1.02;;;;;;;31.71;11.08;100351.78;5019593;28;20390;-72
2022/09/09 10:32:09;;;;;;;7.57;1.30;;;;;;;32.56;10.51;100359.72;5051743;28;20051;-73
2022/09/09 10:34:54;;;;;;;2.05;1.08;;;;;;;34.84;9.04;100363.41;5052421;28;20134;-74
2022/09/09 10:37:39;;;;;;;5.32;1.10;;;;;;;37.88;7.28;100370.13;5051841;28;20052;-72
2022/09/09 10:40:30;;;;;;;3.63;1.20;;;;;;;37.99;7.24;100365.09;5051986;28;20048;-72
2022/09/09 10:43:06;;;;;;;4.80;1.10;;;;;;;36.07;8.41;100359.00;5035578;28;20190;-72
2022/09/09 10:45:54;;;;;;;4.07;1.00;;;;;;;34.05;9.36;100350.41;5052280;28;20055;-72
2022/09/09 10:48:45;;;;;;;3.25;0.85;;;;;;;32.29;10.14;100361.22;5035519;28;20036;-72
2022/09/09 10:51:23;;;;;;;1.50;1.20;;;;;;;32.52;10.14;100352.34;5051926;28;20048;-72
2022/09/09 10:54:27;;;;;;;4.78;1.25;;;;;;;34.69;8.79;100357.28;5068959;28;20373;-73
2022/09/09 10:57:05;;;;;;;3.70;2.90;;;;;;;37.21;7.25;100360.31;5068012;28;20059;-72
2022/09/09 10:59:35;;;;;;;0.98;0.80;;;;;;;38.83;6.38;100362.84;5019135;28;20072;-78
2022/09/09 11:02:17;;;;;;;0.75;0.75;;;;;;;40.84;5.56;100362.72;5068803;28;20048;-70
2022/09/09 11:04:48;;;;;;;2.15;0.57;;;;;;;42.09;4.99;100375.19;5035865;28;20133;-72
2022/09/09 11:07:40;;;;;;;5.25;0.73;;;;;;;43.29;4.74;100368.53;5018224;28;20138;-71
2022/09/09 11:10:36;;;;;;;3.33;0.80;;;;;;;43.04;4.53;100363.00;5034434;28;20131;-72
2022/09/09 11:13:05;;;;;;;5.20;1.08;;;;;;;43.14;4.65;100353.31;5018185;28;20097;-71
2022/09/09 11:15:46;;;;;;;2.25;0.90;;;;;;;43.52;4.25;100364.00;5019052;28;20049;-71
2022/09/09 11:18:21;;;;;;;6.25;1.25;;;;;;;42.11;4.78;100370.88;5034903;28;20059;-70
2022/09/09 11:20:50;;;;;;;7.07;0.90;;;;;;;41.13;5.07;100364.63;5035245;28;20094;-71
2022/09/09 11:23:37;;;;;;;2.08;0.70;;;;;;;38.98;5.76;100359.56;5034970;28;20415;-71
2022/09/09 11:26:04;;;;;;;3.45;0.80;;;;;;;38.27;6.41;100359.00;5050928;28;20040;-71
2022/09/09 11:29:02;;;;;;;3.17;0.70;;;;;;;38.28;6.24;100351.50;5068272;28;20036;-71
2022/09/09 11:31:56;;;;;;;1.95;0.70;;;;;;;37.43;6.82;100351.13;5068213;28;20190;-71
2022/09/09 11:35:01;;;;;;;5.00;0.98;;;;;;;36.29;7.12;100340.56;5068174;28;20056;-70
2022/09/09 11:37:51;;;;;;;1.48;0.65;;;;;;;35.04;8.01;100343.78;5051512;28;20098;-70
2022/09/09 11:40:18;;;;;;;1.15;0.80;;;;;;;33.84;8.90;100346.22;5014777;28;20052;-74
2022/09/09 11:42:44;;;;;;;3.03;1.00;;;;;;;32.85;10.03;100347.97;5031691;28;20045;-74
2022/09/09 11:45:23;;;;;;;5.60;1.10;;;;;;;31.69;10.94;100340.25;5015340;28;20095;-73
2022/09/09 11:47:57;;;;;;;4.70;1.10;;;;;;;30.49;11.98;100341.06;5031171;28;20043;-74
2022/09/09 11:50:23;;;;;;;2.92;1.40;;;;;;;29.46;12.90;100350.13;5046010;28;20041;-74
2022/09/09 11:53:23;;;;;;;3.97;1.10;;;;;;;28.60;13.83;100341.47;5047958;28;20039;-74
2022/09/09 11:56:09;;;;;;;6.20;1.27;;;;;;;27.79;14.88;100340.47;5060523;28;20106;-71